sensor_id;sensor_type;location;lat;lon;timestamp;P1;durP1;ratioP1;P2;durP2;ratioP2
14094;SDS011;18096;48.142;16.290;2023-06-14T00:01:41;2.50;;;1.80;;
14094;SDS011;18096;48.142;16.290;2023-06-14T00:04:10;7.10;;;2.40;;
14094;SDS011;18096;48.142;16.290;2023-06-14T00:06:37;4.00;;;2.20;;
14094;SDS011;18096;48.142;16.290;2023-06-14T00:09:03;4.13;;;1.80;;
14094;SDS011;18096;48.142;16.290;2023-06-14T00:11:29;4.38;;;2.00;;
14094;SDS011;18096;48.142;16.290;2023-06-14T00:13:58;2.42;;;2.22;;
14094;SDS011;18096;48.142;16.290;2023-06-14T00:16:23;2.40;;;1.75;;
14094;SDS011;18096;48.142;16.290;2023-06-14T00:18:49;2.33;;;2.00;;
14094;SDS011;18096;48.142;16.290;2023-06-14T00:21:17;5.50;;;2.60;;
14094;SDS011;18096;48.142;16.290;2023-06-14T00:23:44;3.53;;;2.00;;
14094;SDS011;18096;48.142;16.290;2023-06-14T00:26:09;2.27;;;1.80;;
14094;SDS011;18096;48.142;16.290;2023-06-14T00:28:35;7.82;;;2.28;;
14094;SDS011;18096;48.142;16.290;2023-06-14T00:31:01;4.07;;;1.90;;
14094;SDS011;18096;48.142;16.290;2023-06-14T00:33:26;2.50;;;2.30;;
14094;SDS011;18096;48.142;16.290;2023-06-14T00:35:52;2.50;;;2.30;;
14094;SDS011;18096;48.142;16.290;2023-06-14T00:38:20;2.10;;;2.00;;
14094;SDS011;18096;48.142;16.290;2023-06-14T00:40:46;2.00;;;1.90;;
14094;SDS011;18096;48.142;16.290;2023-06-14T00:43:12;1.85;;;1.75;;
14094;SDS011;18096;48.142;16.290;2023-06-14T00:45:38;2.15;;;2.05;;
14094;SDS011;18096;48.142;16.290;2023-06-14T00:48:04;2.30;;;2.10;;
14094;SDS011;18096;48.142;16.290;2023-06-14T00:50:31;1.60;;;1.50;;
14094;SDS011;18096;48.142;16.290;2023-06-14T00:52:58;2.13;;;2.03;;
14094;SDS011;18096;48.142;16.290;2023-06-14T00:55:28;3.40;;;2.50;;
14094;SDS011;18096;48.142;16.290;2023-06-14T00:57:54;2.75;;;2.20;;
14094;SDS011;18096;48.142;16.290;2023-06-14T01:00:20;2.40;;;2.30;;
14094;SDS011;18096;48.142;16.290;2023-06-14T01:02:46;4.70;;;2.20;;
14094;SDS011;18096;48.142;16.290;2023-06-14T01:05:14;3.80;;;2.05;;
14094;SDS011;18096;48.142;16.290;2023-06-14T01:10:36;2.90;;;1.80;;
14094;SDS011;18096;48.142;16.290;2023-06-14T01:13:32;6.20;;;1.95;;
14094;SDS011;18096;48.142;16.290;2023-06-14T01:16:03;2.10;;;2.00;;
14094;SDS011;18096;48.142;16.290;2023-06-14T01:18:30;2.20;;;2.10;;
14094;SDS011;18096;48.142;16.290;2023-06-14T01:20:57;2.67;;;2.10;;
14094;SDS011;18096;48.142;16.290;2023-06-14T01:23:23;2.10;;;1.90;;
14094;SDS011;18096;48.142;16.290;2023-06-14T01:25:50;2.10;;;1.90;;
14094;SDS011;18096;48.142;16.290;2023-06-14T01:28:20;2.50;;;2.20;;
14094;SDS011;18096;48.142;16.290;2023-06-14T01:30:47;3.30;;;2.20;;
14094;SDS011;18096;48.142;16.290;2023-06-14T01:33:24;2.13;;;2.00;;
14094;SDS011;18096;48.142;16.290;2023-06-14T01:35:52;2.20;;;2.10;;
14094;SDS011;18096;48.142;16.290;2023-06-14T01:38:20;3.27;;;2.03;;
14094;SDS011;18096;48.142;16.290;2023-06-14T01:40:48;2.20;;;2.10;;
14094;SDS011;18096;48.142;16.290;2023-06-14T01:43:15;3.28;;;1.70;;
14094;SDS011;18096;48.142;16.290;2023-06-14T01:45:42;3.75;;;2.20;;
14094;SDS011;18096;48.142;16.290;2023-06-14T01:48:09;2.20;;;2.10;;
14094;SDS011;18096;48.142;16.290;2023-06-14T01:50:35;4.05;;;2.03;;
14094;SDS011;18096;48.142;16.290;2023-06-14T01:53:00;3.08;;;2.33;;
14094;SDS011;18096;48.142;16.290;2023-06-14T01:55:26;5.05;;;2.20;;
14094;SDS011;18096;48.142;16.290;2023-06-14T01:57:52;2.53;;;1.97;;
14094;SDS011;18096;48.142;16.290;2023-06-14T02:00:19;2.80;;;1.90;;
14094;SDS011;18096;48.142;16.290;2023-06-14T02:02:46;6.90;;;2.47;;
14094;SDS011;18096;48.142;16.290;2023-06-14T02:05:12;1.92;;;1.83;;
14094;SDS011;18096;48.142;16.290;2023-06-14T02:07:38;2.20;;;2.00;;
14094;SDS011;18096;48.142;16.290;2023-06-14T02:10:05;2.43;;;2.20;;
14094;SDS011;18096;48.142;16.290;2023-06-14T02:12:32;2.80;;;2.33;;
14094;SDS011;18096;48.142;16.290;2023-06-14T02:14:58;2.00;;;1.90;;
14094;SDS011;18096;48.142;16.290;2023-06-14T02:17:23;6.72;;;2.50;;
14094;SDS011;18096;48.142;16.290;2023-06-14T02:19:49;2.50;;;2.30;;
14094;SDS011;18096;48.142;16.290;2023-06-14T02:22:15;2.83;;;2.00;;
14094;SDS011;18096;48.142;16.290;2023-06-14T02:24:42;1.95;;;1.80;;
14094;SDS011;18096;48.142;16.290;2023-06-14T02:27:07;3.50;;;2.50;;
14094;SDS011;18096;48.142;16.290;2023-06-14T02:29:37;2.60;;;2.28;;
14094;SDS011;18096;48.142;16.290;2023-06-14T02:32:03;2.30;;;2.10;;
14094;SDS011;18096;48.142;16.290;2023-06-14T02:34:32;6.20;;;2.10;;
14094;SDS011;18096;48.142;16.290;2023-06-14T02:36:58;2.50;;;2.15;;
14094;SDS011;18096;48.142;16.290;2023-06-14T02:39:24;2.90;;;2.60;;
14094;SDS011;18096;48.142;16.290;2023-06-14T02:41:50;2.20;;;2.10;;
14094;SDS011;18096;48.142;16.290;2023-06-14T02:44:17;2.30;;;2.10;;
14094;SDS011;18096;48.142;16.290;2023-06-14T02:46:44;2.42;;;2.22;;
14094;SDS011;18096;48.142;16.290;2023-06-14T02:49:10;4.20;;;2.57;;
14094;SDS011;18096;48.142;16.290;2023-06-14T02:51:36;2.40;;;2.20;;
14094;SDS011;18096;48.142;16.290;2023-06-14T02:54:02;2.43;;;2.33;;
14094;SDS011;18096;48.142;16.290;2023-06-14T02:56:28;3.05;;;2.30;;
14094;SDS011;18096;48.142;16.290;2023-06-14T02:58:54;3.40;;;2.38;;
14094;SDS011;18096;48.142;16.290;2023-06-14T03:01:20;2.42;;;2.30;;
14094;SDS011;18096;48.142;16.290;2023-06-14T03:03:46;2.42;;;2.10;;
14094;SDS011;18096;48.142;16.290;2023-06-14T03:06:12;2.92;;;2.20;;
14094;SDS011;18096;48.142;16.290;2023-06-14T03:08:39;4.38;;;2.50;;
14094;SDS011;18096;48.142;16.290;2023-06-14T03:11:06;9.27;;;2.03;;
14094;SDS011;18096;48.142;16.290;2023-06-14T03:13:32;2.17;;;2.08;;
14094;SDS011;18096;48.142;16.290;2023-06-14T03:16:01;2.60;;;2.40;;
14094;SDS011;18096;48.142;16.290;2023-06-14T03:18:29;2.40;;;2.30;;
14094;SDS011;18096;48.142;16.290;2023-06-14T03:20:58;2.00;;;1.90;;
14094;SDS011;18096;48.142;16.290;2023-06-14T03:23:24;2.08;;;1.90;;
14094;SDS011;18096;48.142;16.290;2023-06-14T03:25:52;3.72;;;2.15;;
14094;SDS011;18096;48.142;16.290;2023-06-14T03:28:17;2.58;;;2.28;;
14094;SDS011;18096;48.142;16.290;2023-06-14T03:30:43;2.50;;;2.30;;
14094;SDS011;18096;48.142;16.290;2023-06-14T03:33:09;6.40;;;2.80;;
14094;SDS011;18096;48.142;16.290;2023-06-14T03:35:34;4.00;;;2.70;;
14094;SDS011;18096;48.142;16.290;2023-06-14T03:38:00;2.30;;;2.10;;
14094;SDS011;18096;48.142;16.290;2023-06-14T03:40:27;5.70;;;2.50;;
14094;SDS011;18096;48.142;16.290;2023-06-14T03:42:53;3.10;;;2.72;;
14094;SDS011;18096;48.142;16.290;2023-06-14T03:45:19;2.60;;;2.40;;
14094;SDS011;18096;48.142;16.290;2023-06-14T03:47:46;4.13;;;2.45;;
14094;SDS011;18096;48.142;16.290;2023-06-14T03:50:12;2.90;;;2.60;;
14094;SDS011;18096;48.142;16.290;2023-06-14T03:52:38;2.40;;;2.20;;
14094;SDS011;18096;48.142;16.290;2023-06-14T03:55:04;2.40;;;2.00;;
14094;SDS011;18096;48.142;16.290;2023-06-14T03:57:30;4.45;;;2.70;;
14094;SDS011;18096;48.142;16.290;2023-06-14T03:59:56;5.50;;;2.08;;
14094;SDS011;18096;48.142;16.290;2023-06-14T04:02:22;2.60;;;2.50;;
14094;SDS011;18096;48.142;16.290;2023-06-14T04:04:48;3.85;;;2.10;;
14094;SDS011;18096;48.142;16.290;2023-06-14T04:07:14;3.13;;;2.60;;
14094;SDS011;18096;48.142;16.290;2023-06-14T04:09:44;2.80;;;2.60;;
14094;SDS011;18096;48.142;16.290;2023-06-14T04:12:10;3.90;;;2.20;;
14094;SDS011;18096;48.142;16.290;2023-06-14T04:14:39;4.20;;;2.50;;
14094;SDS011;18096;48.142;16.290;2023-06-14T04:17:05;2.90;;;2.60;;
14094;SDS011;18096;48.142;16.290;2023-06-14T04:19:31;9.70;;;2.53;;
14094;SDS011;18096;48.142;16.290;2023-06-14T04:21:56;2.50;;;2.20;;
14094;SDS011;18096;48.142;16.290;2023-06-14T04:24:24;2.60;;;2.40;;
14094;SDS011;18096;48.142;16.290;2023-06-14T04:26:56;3.00;;;2.70;;
14094;SDS011;18096;48.142;16.290;2023-06-14T04:29:26;2.65;;;2.45;;
14094;SDS011;18096;48.142;16.290;2023-06-14T04:31:54;2.83;;;2.40;;
14094;SDS011;18096;48.142;16.290;2023-06-14T04:34:24;4.13;;;2.38;;
14094;SDS011;18096;48.142;16.290;2023-06-14T04:36:57;3.20;;;2.40;;
14094;SDS011;18096;48.142;16.290;2023-06-14T04:39:24;2.88;;;2.58;;
14094;SDS011;18096;48.142;16.290;2023-06-14T04:41:51;5.18;;;3.28;;
14094;SDS011;18096;48.142;16.290;2023-06-14T04:44:17;5.82;;;2.63;;
14094;SDS011;18096;48.142;16.290;2023-06-14T04:46:45;4.20;;;2.20;;
14094;SDS011;18096;48.142;16.290;2023-06-14T04:49:14;3.05;;;2.17;;
14094;SDS011;18096;48.142;16.290;2023-06-14T04:51:42;2.60;;;2.40;;
14094;SDS011;18096;48.142;16.290;2023-06-14T04:54:11;2.60;;;2.40;;
14094;SDS011;18096;48.142;16.290;2023-06-14T04:56:40;3.53;;;2.50;;
14094;SDS011;18096;48.142;16.290;2023-06-14T04:59:07;4.60;;;3.20;;
14094;SDS011;18096;48.142;16.290;2023-06-14T05:01:34;3.10;;;2.10;;
14094;SDS011;18096;48.142;16.290;2023-06-14T05:03:59;2.43;;;2.20;;
14094;SDS011;18096;48.142;16.290;2023-06-14T05:06:25;3.65;;;2.10;;
14094;SDS011;18096;48.142;16.290;2023-06-14T05:08:53;3.08;;;2.80;;
14094;SDS011;18096;48.142;16.290;2023-06-14T05:11:19;4.53;;;2.47;;
14094;SDS011;18096;48.142;16.290;2023-06-14T05:13:45;2.60;;;2.40;;
14094;SDS011;18096;48.142;16.290;2023-06-14T05:16:11;4.40;;;2.72;;
14094;SDS011;18096;48.142;16.290;2023-06-14T05:18:37;7.80;;;2.73;;
14094;SDS011;18096;48.142;16.290;2023-06-14T05:21:03;2.57;;;2.20;;
14094;SDS011;18096;48.142;16.290;2023-06-14T05:23:32;5.28;;;2.30;;
14094;SDS011;18096;48.142;16.290;2023-06-14T05:25:57;5.30;;;2.00;;
14094;SDS011;18096;48.142;16.290;2023-06-14T05:28:23;3.80;;;2.73;;
14094;SDS011;18096;48.142;16.290;2023-06-14T05:30:49;2.45;;;2.30;;
14094;SDS011;18096;48.142;16.290;2023-06-14T05:33:15;3.05;;;2.60;;
14094;SDS011;18096;48.142;16.290;2023-06-14T05:35:41;16.77;;;2.85;;
14094;SDS011;18096;48.142;16.290;2023-06-14T05:38:07;4.93;;;2.60;;
14094;SDS011;18096;48.142;16.290;2023-06-14T05:40:33;12.80;;;2.90;;
14094;SDS011;18096;48.142;16.290;2023-06-14T05:42:59;7.65;;;2.67;;
14094;SDS011;18096;48.142;16.290;2023-06-14T05:45:24;10.18;;;2.50;;
14094;SDS011;18096;48.142;16.290;2023-06-14T05:47:50;4.43;;;2.67;;
14094;SDS011;18096;48.142;16.290;2023-06-14T05:50:17;3.97;;;2.50;;
14094;SDS011;18096;48.142;16.290;2023-06-14T05:52:42;4.00;;;2.20;;
14094;SDS011;18096;48.142;16.290;2023-06-14T05:55:08;2.77;;;2.57;;
14094;SDS011;18096;48.142;16.290;2023-06-14T05:57:36;4.82;;;2.92;;
14094;SDS011;18096;48.142;16.290;2023-06-14T06:00:03;6.10;;;2.87;;
14094;SDS011;18096;48.142;16.290;2023-06-14T06:02:55;4.53;;;2.47;;
14094;SDS011;18096;48.142;16.290;2023-06-14T06:05:22;8.23;;;2.80;;
14094;SDS011;18096;48.142;16.290;2023-06-14T06:07:48;6.55;;;2.85;;
14094;SDS011;18096;48.142;16.290;2023-06-14T06:10:14;2.40;;;2.30;;
14094;SDS011;18096;48.142;16.290;2023-06-14T06:12:43;7.40;;;3.00;;
14094;SDS011;18096;48.142;16.290;2023-06-14T06:15:09;7.10;;;2.60;;
14094;SDS011;18096;48.142;16.290;2023-06-14T06:17:37;7.10;;;3.13;;
14094;SDS011;18096;48.142;16.290;2023-06-14T06:20:03;3.20;;;2.90;;
14094;SDS011;18096;48.142;16.290;2023-06-14T06:22:32;4.55;;;2.80;;
14094;SDS011;18096;48.142;16.290;2023-06-14T06:24:58;6.32;;;2.60;;
14094;SDS011;18096;48.142;16.290;2023-06-14T06:27:24;3.07;;;2.60;;
14094;SDS011;18096;48.142;16.290;2023-06-14T06:29:49;7.65;;;3.00;;
14094;SDS011;18096;48.142;16.290;2023-06-14T06:32:16;8.30;;;3.53;;
14094;SDS011;18096;48.142;16.290;2023-06-14T06:34:42;3.13;;;2.47;;
14094;SDS011;18096;48.142;16.290;2023-06-14T06:37:08;2.80;;;2.50;;
14094;SDS011;18096;48.142;16.290;2023-06-14T06:39:34;3.05;;;2.55;;
14094;SDS011;18096;48.142;16.290;2023-06-14T06:42:00;8.98;;;2.40;;
14094;SDS011;18096;48.142;16.290;2023-06-14T06:44:25;4.90;;;2.40;;
14094;SDS011;18096;48.142;16.290;2023-06-14T06:46:51;6.10;;;2.50;;
14094;SDS011;18096;48.142;16.290;2023-06-14T06:49:17;3.03;;;2.60;;
14094;SDS011;18096;48.142;16.290;2023-06-14T06:51:43;3.35;;;2.80;;
14094;SDS011;18096;48.142;16.290;2023-06-14T06:54:23;3.40;;;2.63;;
14094;SDS011;18096;48.142;16.290;2023-06-14T06:56:49;4.38;;;2.60;;
14094;SDS011;18096;48.142;16.290;2023-06-14T06:59:15;5.00;;;2.60;;
14094;SDS011;18096;48.142;16.290;2023-06-14T07:01:41;3.40;;;2.53;;
14094;SDS011;18096;48.142;16.290;2023-06-14T07:04:07;10.18;;;2.72;;
14094;SDS011;18096;48.142;16.290;2023-06-14T07:06:33;4.83;;;2.60;;
14094;SDS011;18096;48.142;16.290;2023-06-14T07:08:59;4.20;;;2.47;;
14094;SDS011;18096;48.142;16.290;2023-06-14T07:11:26;8.83;;;2.83;;
14094;SDS011;18096;48.142;16.290;2023-06-14T07:13:52;5.53;;;2.70;;
14094;SDS011;18096;48.142;16.290;2023-06-14T07:16:18;1.92;;;1.80;;
14094;SDS011;18096;48.142;16.290;2023-06-14T07:18:44;3.15;;;2.33;;
14094;SDS011;18096;48.142;16.290;2023-06-14T07:21:09;2.60;;;2.10;;
14094;SDS011;18096;48.142;16.290;2023-06-14T07:23:35;2.15;;;1.95;;
14094;SDS011;18096;48.142;16.290;2023-06-14T07:26:01;17.30;;;2.87;;
14094;SDS011;18096;48.142;16.290;2023-06-14T07:28:26;8.07;;;2.50;;
14094;SDS011;18096;48.142;16.290;2023-06-14T07:30:52;4.07;;;2.10;;
14094;SDS011;18096;48.142;16.290;2023-06-14T07:33:18;2.38;;;2.10;;
14094;SDS011;18096;48.142;16.290;2023-06-14T07:35:43;2.20;;;2.00;;
14094;SDS011;18096;48.142;16.290;2023-06-14T07:38:10;5.70;;;1.75;;
14094;SDS011;18096;48.142;16.290;2023-06-14T07:40:36;2.10;;;1.70;;
14094;SDS011;18096;48.142;16.290;2023-06-14T07:43:02;3.97;;;2.47;;
14094;SDS011;18096;48.142;16.290;2023-06-14T07:45:27;3.25;;;1.92;;
14094;SDS011;18096;48.142;16.290;2023-06-14T07:47:53;4.50;;;2.67;;
14094;SDS011;18096;48.142;16.290;2023-06-14T07:50:19;4.83;;;2.73;;
14094;SDS011;18096;48.142;16.290;2023-06-14T07:52:44;3.97;;;2.20;;
14094;SDS011;18096;48.142;16.290;2023-06-14T07:55:11;2.58;;;2.30;;
14094;SDS011;18096;48.142;16.290;2023-06-14T07:57:38;3.93;;;2.00;;
14094;SDS011;18096;48.142;16.290;2023-06-14T08:00:03;7.72;;;2.65;;
14094;SDS011;18096;48.142;16.290;2023-06-14T08:02:33;3.28;;;2.40;;
14094;SDS011;18096;48.142;16.290;2023-06-14T08:04:58;8.50;;;2.30;;
14094;SDS011;18096;48.142;16.290;2023-06-14T08:07:24;2.80;;;2.50;;
14094;SDS011;18096;48.142;16.290;2023-06-14T08:09:49;2.90;;;2.20;;
14094;SDS011;18096;48.142;16.290;2023-06-14T08:12:15;3.50;;;2.10;;
14094;SDS011;18096;48.142;16.290;2023-06-14T08:14:41;2.53;;;2.33;;
14094;SDS011;18096;48.142;16.290;2023-06-14T08:17:07;3.85;;;1.95;;
14094;SDS011;18096;48.142;16.290;2023-06-14T08:19:33;2.00;;;1.50;;
14094;SDS011;18096;48.142;16.290;2023-06-14T08:21:59;6.38;;;2.30;;
14094;SDS011;18096;48.142;16.290;2023-06-14T08:24:25;1.90;;;1.70;;
14094;SDS011;18096;48.142;16.290;2023-06-14T08:26:53;4.00;;;2.10;;
14094;SDS011;18096;48.142;16.290;2023-06-14T08:29:19;4.55;;;2.42;;
14094;SDS011;18096;48.142;16.290;2023-06-14T08:31:45;4.30;;;2.20;;
14094;SDS011;18096;48.142;16.290;2023-06-14T08:34:10;2.72;;;1.73;;
14094;SDS011;18096;48.142;16.290;2023-06-14T08:36:36;2.00;;;1.63;;
14094;SDS011;18096;48.142;16.290;2023-06-14T08:39:01;7.15;;;1.70;;
14094;SDS011;18096;48.142;16.290;2023-06-14T08:41:27;2.30;;;1.90;;
14094;SDS011;18096;48.142;16.290;2023-06-14T08:43:54;3.83;;;2.00;;
14094;SDS011;18096;48.142;16.290;2023-06-14T08:46:21;2.20;;;1.85;;
14094;SDS011;18096;48.142;16.290;2023-06-14T08:48:50;3.80;;;2.00;;
14094;SDS011;18096;48.142;16.290;2023-06-14T08:51:20;2.40;;;2.00;;
14094;SDS011;18096;48.142;16.290;2023-06-14T08:53:54;2.10;;;1.90;;
14094;SDS011;18096;48.142;16.290;2023-06-14T08:56:26;1.52;;;1.42;;
14094;SDS011;18096;48.142;16.290;2023-06-14T08:58:59;2.40;;;2.20;;
14094;SDS011;18096;48.142;16.290;2023-06-14T09:01:34;15.02;;;2.70;;
14094;SDS011;18096;48.142;16.290;2023-06-14T09:04:03;2.00;;;1.80;;
14094;SDS011;18096;48.142;16.290;2023-06-14T09:06:30;2.28;;;1.75;;
14094;SDS011;18096;48.142;16.290;2023-06-14T09:08:56;2.58;;;1.80;;
14094;SDS011;18096;48.142;16.290;2023-06-14T09:11:22;3.30;;;1.60;;
14094;SDS011;18096;48.142;16.290;2023-06-14T09:13:48;1.85;;;1.50;;
14094;SDS011;18096;48.142;16.290;2023-06-14T09:16:15;2.08;;;1.63;;
14094;SDS011;18096;48.142;16.290;2023-06-14T09:18:42;2.50;;;2.10;;
14094;SDS011;18096;48.142;16.290;2023-06-14T09:21:09;3.10;;;1.50;;
14094;SDS011;18096;48.142;16.290;2023-06-14T09:23:37;1.90;;;1.80;;
14094;SDS011;18096;48.142;16.290;2023-06-14T09:26:10;2.65;;;1.70;;
14094;SDS011;18096;48.142;16.290;2023-06-14T09:28:43;6.80;;;1.92;;
14094;SDS011;18096;48.142;16.290;2023-06-14T09:31:14;2.43;;;1.40;;
14094;SDS011;18096;48.142;16.290;2023-06-14T09:33:44;1.85;;;1.65;;
14094;SDS011;18096;48.142;16.290;2023-06-14T09:38:56;2.83;;;1.67;;
14094;SDS011;18096;48.142;16.290;2023-06-14T09:41:36;5.75;;;1.42;;
14094;SDS011;18096;48.142;16.290;2023-06-14T09:44:09;3.03;;;1.85;;
14094;SDS011;18096;48.142;16.290;2023-06-14T09:46:37;3.38;;;1.85;;
14094;SDS011;18096;48.142;16.290;2023-06-14T09:49:03;3.38;;;2.25;;
14094;SDS011;18096;48.142;16.290;2023-06-14T09:51:30;3.90;;;1.80;;
14094;SDS011;18096;48.142;16.290;2023-06-14T09:54:00;9.50;;;2.05;;
14094;SDS011;18096;48.142;16.290;2023-06-14T09:56:30;2.00;;;1.53;;
14094;SDS011;18096;48.142;16.290;2023-06-14T09:58:57;3.13;;;1.83;;
14094;SDS011;18096;48.142;16.290;2023-06-14T10:01:24;2.53;;;1.60;;
14094;SDS011;18096;48.142;16.290;2023-06-14T10:03:52;1.73;;;1.63;;
14094;SDS011;18096;48.142;16.290;2023-06-14T10:06:22;5.40;;;1.50;;
14094;SDS011;18096;48.142;16.290;2023-06-14T10:08:50;3.03;;;1.55;;
14094;SDS011;18096;48.142;16.290;2023-06-14T10:11:21;1.48;;;1.38;;
14094;SDS011;18096;48.142;16.290;2023-06-14T10:13:46;1.50;;;1.40;;
14094;SDS011;18096;48.142;16.290;2023-06-14T10:16:17;4.28;;;1.90;;
14094;SDS011;18096;48.142;16.290;2023-06-14T10:24:32;7.65;;;1.38;;
14094;SDS011;18096;48.142;16.290;2023-06-14T10:27:00;3.33;;;2.42;;
14094;SDS011;18096;48.142;16.290;2023-06-14T10:29:29;4.60;;;2.50;;
14094;SDS011;18096;48.142;16.290;2023-06-14T10:31:58;2.95;;;1.60;;
14094;SDS011;18096;48.142;16.290;2023-06-14T10:34:28;7.30;;;2.00;;
14094;SDS011;18096;48.142;16.290;2023-06-14T10:37:05;3.50;;;1.40;;
14094;SDS011;18096;48.142;16.290;2023-06-14T10:39:33;2.40;;;1.70;;
14094;SDS011;18096;48.142;16.290;2023-06-14T10:42:09;3.40;;;1.60;;
14094;SDS011;18096;48.142;16.290;2023-06-14T10:44:50;3.00;;;1.58;;
14094;SDS011;18096;48.142;16.290;2023-06-14T10:47:28;2.15;;;1.40;;
14094;SDS011;18096;48.142;16.290;2023-06-14T10:49:57;3.20;;;1.80;;
14094;SDS011;18096;48.142;16.290;2023-06-14T10:52:29;2.30;;;2.08;;
14094;SDS011;18096;48.142;16.290;2023-06-14T10:55:04;1.70;;;1.60;;
14094;SDS011;18096;48.142;16.290;2023-06-14T10:57:41;1.70;;;1.60;;
14094;SDS011;18096;48.142;16.290;2023-06-14T11:00:07;2.05;;;1.85;;
14094;SDS011;18096;48.142;16.290;2023-06-14T11:11:09;5.30;;;1.73;;
14094;SDS011;18096;48.142;16.290;2023-06-14T11:13:38;1.70;;;1.60;;
14094;SDS011;18096;48.142;16.290;2023-06-14T11:16:15;1.80;;;1.70;;
14094;SDS011;18096;48.142;16.290;2023-06-14T11:18:44;2.28;;;1.98;;
14094;SDS011;18096;48.142;16.290;2023-06-14T11:21:10;1.90;;;1.80;;
14094;SDS011;18096;48.142;16.290;2023-06-14T11:23:36;1.80;;;1.20;;
14094;SDS011;18096;48.142;16.290;2023-06-14T11:26:02;3.15;;;1.83;;
14094;SDS011;18096;48.142;16.290;2023-06-14T11:28:39;11.20;;;1.50;;
14094;SDS011;18096;48.142;16.290;2023-06-14T11:31:06;4.43;;;1.60;;
14094;SDS011;18096;48.142;16.290;2023-06-14T11:33:32;3.92;;;1.77;;
14094;SDS011;18096;48.142;16.290;2023-06-14T11:35:58;2.20;;;1.67;;
14094;SDS011;18096;48.142;16.290;2023-06-14T11:38:26;3.60;;;2.08;;
14094;SDS011;18096;48.142;16.290;2023-06-14T11:40:52;11.68;;;2.33;;
14094;SDS011;18096;48.142;16.290;2023-06-14T11:43:17;6.90;;;1.70;;
14094;SDS011;18096;48.142;16.290;2023-06-14T11:45:43;5.97;;;2.00;;
14094;SDS011;18096;48.142;16.290;2023-06-14T11:48:13;4.80;;;1.50;;
14094;SDS011;18096;48.142;16.290;2023-06-14T11:50:39;3.92;;;1.70;;
14094;SDS011;18096;48.142;16.290;2023-06-14T11:53:04;2.50;;;1.70;;
14094;SDS011;18096;48.142;16.290;2023-06-14T11:55:38;6.78;;;2.28;;
14094;SDS011;18096;48.142;16.290;2023-06-14T11:58:05;4.60;;;1.60;;
14094;SDS011;18096;48.142;16.290;2023-06-14T12:00:31;3.60;;;1.60;;
14094;SDS011;18096;48.142;16.290;2023-06-14T12:02:57;6.38;;;1.42;;
14094;SDS011;18096;48.142;16.290;2023-06-14T12:05:24;4.85;;;1.67;;
14094;SDS011;18096;48.142;16.290;2023-06-14T12:07:57;4.20;;;1.77;;
14094;SDS011;18096;48.142;16.290;2023-06-14T12:10:25;1.40;;;1.30;;
14094;SDS011;18096;48.142;16.290;2023-06-14T12:12:56;4.00;;;1.80;;
14094;SDS011;18096;48.142;16.290;2023-06-14T12:15:27;5.50;;;1.92;;
14094;SDS011;18096;48.142;16.290;2023-06-14T12:17:54;3.97;;;1.90;;
14094;SDS011;18096;48.142;16.290;2023-06-14T12:20:20;2.17;;;1.63;;
14094;SDS011;18096;48.142;16.290;2023-06-14T12:22:53;2.35;;;1.70;;
14094;SDS011;18096;48.142;16.290;2023-06-14T12:27:57;1.70;;;1.60;;
14094;SDS011;18096;48.142;16.290;2023-06-14T12:30:23;4.53;;;1.80;;
14094;SDS011;18096;48.142;16.290;2023-06-14T12:32:49;1.90;;;1.60;;
14094;SDS011;18096;48.142;16.290;2023-06-14T12:35:16;3.78;;;1.60;;
14094;SDS011;18096;48.142;16.290;2023-06-14T12:37:43;3.87;;;1.70;;
14094;SDS011;18096;48.142;16.290;2023-06-14T12:40:09;3.28;;;1.90;;
14094;SDS011;18096;48.142;16.290;2023-06-14T12:42:36;2.15;;;1.27;;
14094;SDS011;18096;48.142;16.290;2023-06-14T12:45:02;1.70;;;1.50;;
14094;SDS011;18096;48.142;16.290;2023-06-14T12:47:28;1.90;;;1.42;;
14094;SDS011;18096;48.142;16.290;2023-06-14T12:49:53;3.50;;;1.90;;
14094;SDS011;18096;48.142;16.290;2023-06-14T12:52:19;1.77;;;1.57;;
14094;SDS011;18096;48.142;16.290;2023-06-14T12:54:44;4.70;;;1.90;;
14094;SDS011;18096;48.142;16.290;2023-06-14T12:57:29;2.47;;;1.60;;
14094;SDS011;18096;48.142;16.290;2023-06-14T12:59:54;1.60;;;1.40;;
14094;SDS011;18096;48.142;16.290;2023-06-14T13:02:20;1.50;;;1.40;;
14094;SDS011;18096;48.142;16.290;2023-06-14T13:04:47;1.40;;;1.30;;
14094;SDS011;18096;48.142;16.290;2023-06-14T13:07:13;4.30;;;1.80;;
14094;SDS011;18096;48.142;16.290;2023-06-14T13:09:40;4.40;;;1.80;;
14094;SDS011;18096;48.142;16.290;2023-06-14T13:12:06;2.40;;;1.60;;
14094;SDS011;18096;48.142;16.290;2023-06-14T13:14:32;6.80;;;1.75;;
14094;SDS011;18096;48.142;16.290;2023-06-14T13:16:58;2.50;;;1.30;;
14094;SDS011;18096;48.142;16.290;2023-06-14T13:19:23;3.60;;;1.70;;
14094;SDS011;18096;48.142;16.290;2023-06-14T13:21:49;2.13;;;1.70;;
14094;SDS011;18096;48.142;16.290;2023-06-14T13:24:15;3.08;;;1.77;;
14094;SDS011;18096;48.142;16.290;2023-06-14T13:26:41;5.97;;;1.60;;
14094;SDS011;18096;48.142;16.290;2023-06-14T13:29:06;2.20;;;1.75;;
14094;SDS011;18096;48.142;16.290;2023-06-14T13:31:32;1.60;;;1.50;;
14094;SDS011;18096;48.142;16.290;2023-06-14T13:33:58;2.25;;;1.48;;
14094;SDS011;18096;48.142;16.290;2023-06-14T13:36:23;1.93;;;1.83;;
14094;SDS011;18096;48.142;16.290;2023-06-14T13:38:49;4.07;;;1.80;;
14094;SDS011;18096;48.142;16.290;2023-06-14T13:41:16;1.80;;;1.70;;
14094;SDS011;18096;48.142;16.290;2023-06-14T13:43:42;7.60;;;1.70;;
14094;SDS011;18096;48.142;16.290;2023-06-14T13:46:08;4.77;;;1.77;;
14094;SDS011;18096;48.142;16.290;2023-06-14T13:48:33;2.50;;;1.50;;
14094;SDS011;18096;48.142;16.290;2023-06-14T13:50:59;2.40;;;1.80;;
14094;SDS011;18096;48.142;16.290;2023-06-14T13:53:25;1.80;;;1.70;;
14094;SDS011;18096;48.142;16.290;2023-06-14T13:55:51;2.00;;;1.50;;
14094;SDS011;18096;48.142;16.290;2023-06-14T13:58:17;2.40;;;1.52;;
14094;SDS011;18096;48.142;16.290;2023-06-14T14:00:44;3.47;;;1.67;;
14094;SDS011;18096;48.142;16.290;2023-06-14T14:03:09;2.40;;;1.45;;
14094;SDS011;18096;48.142;16.290;2023-06-14T14:05:36;2.70;;;1.60;;
14094;SDS011;18096;48.142;16.290;2023-06-14T14:08:01;1.40;;;1.30;;
14094;SDS011;18096;48.142;16.290;2023-06-14T14:10:28;1.80;;;1.70;;
14094;SDS011;18096;48.142;16.290;2023-06-14T14:12:54;1.95;;;1.50;;
14094;SDS011;18096;48.142;16.290;2023-06-14T14:15:20;3.20;;;1.67;;
14094;SDS011;18096;48.142;16.290;2023-06-14T14:17:45;1.33;;;1.23;;
14094;SDS011;18096;48.142;16.290;2023-06-14T14:20:12;1.75;;;1.20;;
14094;SDS011;18096;48.142;16.290;2023-06-14T14:22:40;1.88;;;1.77;;
14094;SDS011;18096;48.142;16.290;2023-06-14T14:25:06;1.90;;;1.80;;
14094;SDS011;18096;48.142;16.290;2023-06-14T14:27:32;2.17;;;1.75;;
14094;SDS011;18096;48.142;16.290;2023-06-14T14:29:58;1.90;;;1.80;;
14094;SDS011;18096;48.142;16.290;2023-06-14T14:32:23;1.70;;;1.60;;
14094;SDS011;18096;48.142;16.290;2023-06-14T14:34:49;11.07;;;1.67;;
14094;SDS011;18096;48.142;16.290;2023-06-14T14:37:15;1.73;;;1.63;;
14094;SDS011;18096;48.142;16.290;2023-06-14T14:39:41;1.50;;;1.40;;
14094;SDS011;18096;48.142;16.290;2023-06-14T14:42:07;1.60;;;1.50;;
14094;SDS011;18096;48.142;16.290;2023-06-14T14:44:32;1.40;;;1.30;;
14094;SDS011;18096;48.142;16.290;2023-06-14T14:46:58;1.67;;;1.58;;
14094;SDS011;18096;48.142;16.290;2023-06-14T14:49:24;1.50;;;1.40;;
14094;SDS011;18096;48.142;16.290;2023-06-14T14:51:49;2.20;;;1.50;;
14094;SDS011;18096;48.142;16.290;2023-06-14T14:54:15;1.97;;;1.50;;
14094;SDS011;18096;48.142;16.290;2023-06-14T14:56:41;3.80;;;1.67;;